Time;durP1;ratioP1;P1;durP2;ratioP2;P2;SDS_P1;SDS_P2;PMS_P1;PMS_P2;Temp;Humidity;BMP_temperature;BMP_pressure;BME280_temperature;BME280_humidity;BME280_pressure;Samples;Min_cycle;Max_cycle;Signal;HPM_P1;HPM_P2
2020/12/17 00:01:19;;;;;;;95.70;44.40;;;;;;;5.87;96.63;101761.84;4997480;28;20026;-79
2020/12/17 00:03:44;;;;;;;96.72;43.88;;;;;;;5.75;97.01;101765.19;5024252;28;20038;-78
2020/12/17 00:06:13;;;;;;;106.95;47.40;;;;;;;5.82;96.95;101777.75;4998739;28;20404;-76
2020/12/17 00:08:39;;;;;;;105.47;47.05;;;;;;;5.85;97.13;101769.75;4987877;28;20041;-77
2020/12/17 00:11:07;;;;;;;101.70;44.05;;;;;;;5.72;97.08;101774.00;4975277;28;20393;-77
2020/12/17 00:13:32;;;;;;;107.32;44.47;;;;;;;5.70;96.99;101765.44;4991961;28;20473;-76
2020/12/17 00:15:58;;;;;;;101.95;45.28;;;;;;;5.70;97.39;101756.81;4985703;28;20125;-76
2020/12/17 00:18:24;;;;;;;109.45;47.75;;;;;;;5.80;97.66;101748.38;4994963;28;20035;-78
2020/12/17 00:20:49;;;;;;;105.35;47.25;;;;;;;5.83;96.82;101749.94;4994968;28;20046;-79
2020/12/17 00:23:15;;;;;;;102.55;44.58;;;;;;;5.88;97.10;101739.25;5014216;28;20084;-77
2020/12/17 00:25:40;;;;;;;93.32;43.38;;;;;;;5.88;97.07;101747.91;4987459;28;20175;-76
2020/12/17 00:28:06;;;;;;;101.15;44.50;;;;;;;5.90;96.82;101740.84;4975548;28;20511;-78
2020/12/17 00:30:31;;;;;;;95.53;44.75;;;;;;;5.96;96.78;101737.06;4990437;28;20037;-78
2020/12/17 00:32:57;;;;;;;93.88;43.13;;;;;;;5.92;96.37;101730.34;5000535;28;20458;-78
2020/12/17 00:35:22;;;;;;;87.60;42.60;;;;;;;5.96;96.43;101732.69;4982693;28;20042;-79
2020/12/17 00:37:48;;;;;;;90.60;41.28;;;;;;;5.96;96.17;101737.06;4975439;28;20575;-78
2020/12/17 00:40:15;;;;;;;94.03;42.22;;;;;;;5.87;96.26;101738.41;4991411;28;20041;-78
2020/12/17 00:42:42;;;;;;;91.20;41.17;;;;;;;5.86;95.96;101739.34;4980754;28;20061;-77
2020/12/17 00:45:08;;;;;;;85.68;40.83;;;;;;;5.85;95.90;101743.72;5001189;28;20048;-76
2020/12/17 00:47:34;;;;;;;92.90;42.47;;;;;;;5.78;96.37;101739.81;4981390;28;20034;-80
2020/12/17 00:50:00;;;;;;;93.95;43.03;;;;;;;5.78;96.68;101742.41;4977669;28;20515;-77
2020/12/17 00:52:25;;;;;;;89.82;41.40;;;;;;;5.74;96.89;101751.31;4978296;28;20038;-78
2020/12/17 00:54:51;;;;;;;87.18;40.58;;;;;;;5.80;96.38;101744.91;4975771;28;20034;-78
2020/12/17 00:57:17;;;;;;;85.18;39.78;;;;;;;5.74;96.76;101732.25;5001042;28;20022;-79
2020/12/17 00:59:43;;;;;;;87.50;39.92;;;;;;;5.74;96.95;101717.47;4988917;28;20248;-78
2020/12/17 01:02:09;;;;;;;90.72;40.95;;;;;;;5.73;96.56;101713.22;5007251;28;20049;-77
2020/12/17 01:04:34;;;;;;;96.55;42.25;;;;;;;5.64;96.46;101714.59;4983017;28;20035;-78
2020/12/17 01:07:00;;;;;;;89.13;39.95;;;;;;;5.65;96.58;101725.81;4977584;28;20522;-78
2020/12/17 01:09:25;;;;;;;89.72;41.28;;;;;;;5.58;96.43;101711.53;4994108;28;20461;-76
2020/12/17 01:11:51;;;;;;;87.20;38.67;;;;;;;5.55;96.89;101717.72;4977562;28;20116;-76
2020/12/17 01:14:16;;;;;;;91.55;40.58;;;;;;;5.51;96.83;101721.44;4974465;28;20039;-79
2020/12/17 01:16:46;;;;;;;88.78;40.78;;;;;;;5.45;96.97;101712.22;4966849;28;20089;-79
2020/12/17 01:19:12;;;;;;;89.40;40.78;;;;;;;5.35;97.29;101711.09;4978955;28;20124;-78
2020/12/17 01:21:37;;;;;;;97.13;42.85;;;;;;;5.38;96.44;101708.28;4984694;28;20114;-79
2020/12/17 01:24:03;;;;;;;90.32;40.72;;;;;;;5.32;96.51;101713.03;4962732;28;20089;-79
2020/12/17 01:26:28;;;;;;;89.20;40.45;;;;;;;5.23;97.08;101714.38;4992412;28;20031;-78
2020/12/17 01:28:54;;;;;;;92.53;40.53;;;;;;;5.22;96.71;101715.34;4959932;28;20066;-77
2020/12/17 01:31:19;;;;;;;93.05;40.13;;;;;;;5.20;97.12;101719.78;4993917;28;20048;-78
2020/12/17 01:33:45;;;;;;;93.57;40.83;;;;;;;5.19;97.25;101725.91;4974669;28;20129;-78
2020/12/17 01:36:11;;;;;;;95.97;41.90;;;;;;;5.10;97.11;101710.81;4961429;28;20038;-78
2020/12/17 01:38:39;;;;;;;92.43;39.97;;;;;;;5.12;97.16;101727.16;4977836;28;20386;-78
2020/12/17 01:41:05;;;;;;;100.75;42.03;;;;;;;5.13;97.70;101721.88;4989506;28;20038;-78
2020/12/17 01:43:36;;;;;;;98.28;40.30;;;;;;;5.19;97.09;101724.13;4973763;28;20034;-79
2020/12/17 01:46:02;;;;;;;98.07;41.63;;;;;;;5.20;97.59;101725.00;4974194;28;20038;-79
2020/12/17 01:48:28;;;;;;;89.47;38.92;;;;;;;5.16;97.67;101721.72;4974715;28;20404;-78
2020/12/17 01:50:53;;;;;;;88.97;39.83;;;;;;;5.26;97.19;101728.06;4990610;28;20039;-80
2020/12/17 01:53:19;;;;;;;88.80;41.03;;;;;;;5.29;97.51;101728.81;5002551;28;20493;-78
2020/12/17 01:55:44;;;;;;;86.68;37.00;;;;;;;5.26;96.61;101709.84;4993230;28;20100;-79
2020/12/17 01:58:13;;;;;;;85.20;37.50;;;;;;;5.33;96.70;101727.69;4985687;28;20034;-78
2020/12/17 02:00:39;;;;;;;97.82;40.15;;;;;;;5.31;97.08;101725.19;4983095;28;20043;-78
2020/12/17 02:03:06;;;;;;;91.15;39.88;;;;;;;5.32;96.91;101723.44;4960528;28;20034;-79
2020/12/17 02:05:32;;;;;;;87.72;39.85;;;;;;;5.32;96.83;101726.88;4985904;28;20038;-79
2020/12/17 02:07:59;;;;;;;86.15;39.03;;;;;;;5.30;96.80;101723.53;4995208;28;20030;-79
2020/12/17 02:10:26;;;;;;;88.18;38.83;;;;;;;5.30;96.80;101726.13;4974445;28;20400;-79
2020/12/17 02:12:52;;;;;;;91.72;40.17;;;;;;;5.33;96.56;101717.28;4975880;28;20054;-78
2020/12/17 02:15:19;;;;;;;88.82;37.47;;;;;;;5.36;96.60;101723.16;4942456;28;20034;-78
2020/12/17 02:17:45;;;;;;;78.95;38.05;;;;;;;5.25;96.51;101696.94;4987717;28;20129;-78
2020/12/17 02:20:11;;;;;;;84.00;37.70;;;;;;;5.37;96.48;101713.59;4958553;28;20049;-79
2020/12/17 02:22:37;;;;;;;77.78;36.13;;;;;;;5.33;96.54;101712.09;4965623;28;20027;-79
2020/12/17 02:25:06;;;;;;;85.07;38.25;;;;;;;5.35;96.70;101699.84;4993925;28;20026;-77
2020/12/17 02:27:31;;;;;;;80.40;35.63;;;;;;;5.35;96.60;101710.25;4973552;28;20091;-78
2020/12/17 02:29:57;;;;;;;80.63;37.03;;;;;;;5.33;96.44;101702.53;4980141;28;20132;-80
2020/12/17 02:32:22;;;;;;;81.28;36.40;;;;;;;5.31;96.35;101686.16;4976918;28;20038;-78
2020/12/17 02:34:48;;;;;;;78.20;37.30;;;;;;;5.32;96.54;101700.84;4961268;28;20408;-79
2020/12/17 02:37:14;;;;;;;79.38;35.85;;;;;;;5.35;96.39;101695.50;4988067;28;20033;-79
2020/12/17 02:39:39;;;;;;;83.18;37.58;;;;;;;5.34;96.64;101690.38;4962097;28;20415;-79
2020/12/17 02:42:05;;;;;;;77.50;36.03;;;;;;;5.43;95.88;101700.25;4993898;28;20044;-77
2020/12/17 02:44:31;;;;;;;69.82;35.42;;;;;;;5.35;96.25;101707.63;4960913;28;20038;-79
2020/12/17 02:46:56;;;;;;;73.55;36.08;;;;;;;5.40;95.89;101703.00;4984081;28;20117;-78
2020/12/17 02:49:22;;;;;;;75.72;35.97;;;;;;;5.35;96.25;101700.69;4958874;28;20026;-78
2020/12/17 02:51:47;;;;;;;72.43;34.13;;;;;;;5.32;96.27;101706.06;4989625;28;20030;-80
2020/12/17 02:54:13;;;;;;;76.50;36.55;;;;;;;5.29;96.59;101706.22;4976715;28;20125;-79
2020/12/17 02:56:38;;;;;;;70.50;33.10;;;;;;;5.33;96.58;101712.09;4977118;28;20038;-79
2020/12/17 02:59:04;;;;;;;74.22;36.05;;;;;;;5.28;96.68;101714.97;4992045;28;20034;-79
2020/12/17 03:01:29;;;;;;;76.05;34.38;;;;;;;5.30;96.56;101707.91;4968116;28;20038;-78
2020/12/17 03:03:55;;;;;;;72.70;34.53;;;;;;;5.22;96.85;101689.31;4984610;28;20036;-76
2020/12/17 03:06:20;;;;;;;70.63;33.20;;;;;;;5.28;96.57;101693.34;5019776;28;20045;-77
2020/12/17 03:08:46;;;;;;;74.00;34.63;;;;;;;5.37;95.77;101695.38;4979825;28;20061;-78
2020/12/17 03:11:12;;;;;;;75.13;35.00;;;;;;;5.33;95.87;101693.88;4993052;28;20034;-78
2020/12/17 03:13:37;;;;;;;79.38;36.83;;;;;;;5.33;95.91;101692.13;4958639;28;20042;-78
2020/12/17 03:16:03;;;;;;;68.40;33.47;;;;;;;5.33;96.14;101688.69;4973009;28;20527;-77
2020/12/17 03:18:28;;;;;;;67.50;33.70;;;;;;;5.27;96.52;101689.88;4989665;28;20042;-77
2020/12/17 03:20:54;;;;;;;73.40;35.65;;;;;;;5.27;96.74;101689.88;4988568;28;20489;-77
2020/12/17 03:23:19;;;;;;;76.57;35.85;;;;;;;5.25;96.63;101689.13;4994837;28;20087;-77
2020/12/17 03:25:45;;;;;;;83.25;34.42;;;;;;;5.28;96.03;101688.97;4996099;28;20034;-78
2020/12/17 03:28:10;;;;;;;72.95;34.70;;;;;;;5.32;95.93;101689.63;4976219;28;20481;-77
2020/12/17 03:30:36;;;;;;;79.55;36.97;;;;;;;5.29;95.97;101688.00;4992907;28;20049;-76
2020/12/17 03:33:01;;;;;;;71.60;34.30;;;;;;;5.28;96.33;101688.13;4994764;28;20054;-76
2020/12/17 03:35:27;;;;;;;68.60;33.83;;;;;;;5.26;96.32;101681.25;4994438;28;20041;-76
2020/12/17 03:37:57;;;;;;;73.07;34.05;;;;;;;5.22;96.32;101677.16;4977062;28;20122;-76
2020/12/17 03:40:26;;;;;;;65.55;32.10;;;;;;;5.22;96.17;101681.53;4957665;28;20489;-76
2020/12/17 03:42:53;;;;;;;63.78;33.42;;;;;;;5.34;95.57;101683.38;4989344;28;20041;-76
2020/12/17 03:45:19;;;;;;;66.93;33.13;;;;;;;5.28;95.62;101672.53;4974446;28;20039;-78
2020/12/17 03:47:44;;;;;;;67.82;34.08;;;;;;;5.31;96.20;101669.72;5003040;28;20049;-76
2020/12/17 03:50:10;;;;;;;71.00;33.90;;;;;;;5.33;95.83;101681.72;4997091;28;20042;-78
2020/12/17 03:52:35;;;;;;;64.88;33.10;;;;;;;5.26;96.27;101685.63;4993706;28;20042;-76
2020/12/17 03:55:01;;;;;;;68.07;32.83;;;;;;;5.24;95.69;101683.09;4994451;28;20092;-77
2020/12/17 03:57:27;;;;;;;71.38;34.03;;;;;;;5.21;96.00;101680.66;4997465;28;20022;-76
2020/12/17 03:59:52;;;;;;;69.80;33.33;;;;;;;5.24;96.03;101677.06;4977007;28;20500;-77
2020/12/17 04:02:18;;;;;;;66.03;33.85;;;;;;;5.20;95.65;101672.97;4961574;28;20037;-76
2020/12/17 04:04:43;;;;;;;63.13;33.25;;;;;;;5.21;95.90;101672.03;4989748;28;20030;-77
2020/12/17 04:07:12;;;;;;;69.82;33.70;;;;;;;5.13;95.84;101666.44;5002758;28;20062;-77
2020/12/17 04:09:39;;;;;;;64.85;32.03;;;;;;;5.15;95.95;101672.38;4997203;28;20042;-76
2020/12/17 04:12:05;;;;;;;69.60;33.03;;;;;;;5.13;95.93;101679.44;4996514;28;20112;-75
2020/12/17 04:14:30;;;;;;;70.10;34.25;;;;;;;5.17;96.11;101673.13;4996667;28;20492;-78
2020/12/17 04:16:56;;;;;;;66.18;33.10;;;;;;;5.15;96.17;101670.63;4980610;28;20039;-77
2020/12/17 04:19:21;;;;;;;66.20;32.80;;;;;;;5.11;95.68;101674.31;4996783;28;20544;-77
2020/12/17 04:21:47;;;;;;;65.68;32.15;;;;;;;5.14;95.84;101670.69;4998725;28;20038;-77
2020/12/17 04:24:12;;;;;;;69.03;33.63;;;;;;;5.10;96.10;101667.44;5023431;28;20500;-77
2020/12/17 04:26:38;;;;;;;66.13;33.42;;;;;;;5.04;96.18;101671.22;4999991;28;20088;-78
2020/12/17 04:29:04;;;;;;;70.30;32.78;;;;;;;5.01;96.12;101675.75;4997396;28;20507;-77
2020/12/17 04:31:29;;;;;;;69.70;34.03;;;;;;;4.97;96.68;101671.66;5013617;28;20510;-76
2020/12/17 04:33:55;;;;;;;67.88;31.77;;;;;;;4.93;96.67;101671.00;4970597;28;20162;-78
2020/12/17 04:36:21;;;;;;;64.43;31.75;;;;;;;4.98;96.36;101668.97;4983027;28;20381;-77
2020/12/17 04:38:46;;;;;;;67.32;33.72;;;;;;;4.98;96.17;101671.59;5023251;28;20060;-78
2020/12/17 04:41:16;;;;;;;63.72;31.73;;;;;;;5.04;96.10;101665.19;4989261;28;20034;-77
2020/12/17 04:43:42;;;;;;;66.70;32.22;;;;;;;4.99;96.15;101651.59;4995929;28;20038;-77
2020/12/17 04:46:10;;;;;;;68.60;32.45;;;;;;;5.02;96.00;101654.88;4979550;28;20085;-76
2020/12/17 04:48:40;;;;;;;64.90;31.40;;;;;;;5.01;95.54;101663.63;4996156;28;20065;-77
2020/12/17 04:51:06;;;;;;;67.07;30.65;;;;;;;4.97;96.07;101658.66;4977946;28;20038;-77
2020/12/17 04:53:32;;;;;;;61.08;30.95;;;;;;;5.00;95.84;101669.72;4979581;28;20094;-77
2020/12/17 04:55:58;;;;;;;61.28;30.73;;;;;;;4.98;95.98;101660.34;4997346;28;20094;-77
2020/12/17 04:58:27;;;;;;;67.65;32.05;;;;;;;4.92;96.00;101651.16;5000778;28;20026;-77
2020/12/17 05:00:55;;;;;;;67.57;33.20;;;;;;;4.87;96.16;101645.34;4994343;28;20037;-77
2020/12/17 05:03:22;;;;;;;69.68;34.10;;;;;;;4.90;96.11;101650.41;4970155;28;20560;-77
2020/12/17 05:05:51;;;;;;;66.00;32.83;;;;;;;4.88;96.36;101641.84;4994136;28;20034;-75
2020/12/17 05:08:21;;;;;;;70.88;33.25;;;;;;;4.88;96.23;101634.88;4963779;28;20503;-77
2020/12/17 05:10:48;;;;;;;70.18;33.60;;;;;;;4.93;96.38;101636.38;4979667;28;20034;-77
2020/12/17 05:13:15;;;;;;;72.03;34.22;;;;;;;4.93;96.38;101636.38;4963154;28;20038;-77
2020/12/17 05:15:43;;;;;;;68.40;33.28;;;;;;;4.95;96.12;101639.72;4963506;28;20071;-77
2020/12/17 05:18:08;;;;;;;68.18;33.15;;;;;;;4.99;95.91;101652.47;4979884;28;20030;-77
2020/12/17 05:20:40;;;;;;;63.42;31.35;;;;;;;5.01;96.17;101654.97;4962594;28;20071;-77
2020/12/17 05:23:06;;;;;;;61.50;30.80;;;;;;;4.98;95.88;101647.34;4983431;28;20034;-77
2020/12/17 05:25:32;;;;;;;65.32;31.45;;;;;;;5.00;96.31;101643.72;4984575;28;20383;-77
2020/12/17 05:28:01;;;;;;;65.22;33.30;;;;;;;5.03;96.01;101637.53;4988346;28;20519;-77
2020/12/17 05:30:34;;;;;;;64.68;33.33;;;;;;;5.04;95.85;101634.00;4981384;28;20117;-76
2020/12/17 05:33:01;;;;;;;64.90;31.70;;;;;;;4.99;95.98;101629.06;5012562;28;20037;-76
2020/12/17 05:35:32;;;;;;;56.15;29.73;;;;;;;5.03;96.17;101629.72;4998580;28;20041;-78
2020/12/17 05:37:59;;;;;;;59.47;30.13;;;;;;;4.98;96.10;101642.16;4997520;28;20048;-78
2020/12/17 05:40:24;;;;;;;61.20;31.33;;;;;;;5.02;95.76;101651.44;4997552;28;20041;-77
2020/12/17 05:42:50;;;;;;;62.80;31.85;;;;;;;4.99;96.25;101652.47;4994636;28;20125;-78
2020/12/17 05:45:23;;;;;;;63.10;30.67;;;;;;;5.00;96.30;101651.53;4963169;28;20038;-76
2020/12/17 05:48:07;;;;;;;60.05;29.67;;;;;;;5.05;95.69;101661.69;5020605;28;20480;-78
2020/12/17 05:50:33;;;;;;;59.15;30.20;;;;;;;4.95;96.24;101666.53;4995932;28;20481;-78
2020/12/17 05:53:02;;;;;;;60.70;30.67;;;;;;;4.98;96.12;101666.38;4980685;28;20065;-77
2020/12/17 05:55:31;;;;;;;61.33;30.65;;;;;;;4.98;96.25;101668.97;4995379;28;20041;-76
2020/12/17 05:57:56;;;;;;;62.67;31.10;;;;;;;4.95;96.35;101665.72;4996010;28;20042;-77
2020/12/17 06:00:21;;;;;;;57.70;28.65;;;;;;;5.01;95.93;101671.41;5008886;28;20443;-77
2020/12/17 06:02:47;;;;;;;57.90;28.83;;;;;;;4.95;95.53;101666.53;5004124;28;20045;-77
2020/12/17 06:05:14;;;;;;;55.03;27.88;;;;;;;5.00;96.30;101664.53;4988406;28;20109;-78
2020/12/17 06:07:45;;;;;;;53.80;27.55;;;;;;;5.00;95.60;101668.91;4989546;28;20049;-78
2020/12/17 06:10:16;;;;;;;61.03;29.35;;;;;;;4.97;96.21;101661.25;4999250;28;20046;-78
2020/12/17 06:12:44;;;;;;;53.10;28.20;;;;;;;5.06;95.52;101658.97;4975837;28;20043;-77
2020/12/17 06:15:15;;;;;;;60.10;28.92;;;;;;;5.06;95.68;101661.56;4989428;28;20026;-77
2020/12/17 06:17:47;;;;;;;54.33;29.13;;;;;;;5.03;95.57;101648.75;4977395;28;20034;-76
2020/12/17 06:20:14;;;;;;;53.97;27.38;;;;;;;5.09;95.40;101652.78;4975364;28;20031;-76
2020/12/17 06:22:40;;;;;;;59.17;28.27;;;;;;;5.05;95.88;101643.47;4992595;28;20046;-76
2020/12/17 06:25:11;;;;;;;52.58;28.63;;;;;;;5.07;95.42;101645.06;4995558;28;20416;-78
2020/12/17 06:27:38;;;;;;;55.83;29.10;;;;;;;5.04;95.50;101631.41;4976215;28;20053;-77
2020/12/17 06:30:08;;;;;;;54.78;29.27;;;;;;;5.05;95.94;101644.31;4964666;28;20030;-77
2020/12/17 06:32:36;;;;;;;55.97;27.63;;;;;;;5.05;95.40;101641.72;4999966;28;20037;-78
2020/12/17 06:35:08;;;;;;;58.63;29.67;;;;;;;5.07;95.70;101628.63;5015571;28;20151;-78
2020/12/17 06:37:37;;;;;;;53.00;26.90;;;;;;;5.08;95.71;101612.06;4994948;28;20041;-75
2020/12/17 06:40:03;;;;;;;50.28;27.63;;;;;;;5.13;95.76;101623.06;4995571;28;20053;-75
2020/12/17 06:42:47;;;;;;;54.83;28.05;;;;;;;5.16;95.44;101624.63;4966623;28;20692;-77
2020/12/17 06:45:27;;;;;;;54.03;28.08;;;;;;;5.14;95.50;101621.28;4985504;28;20041;-77
2020/12/17 06:47:53;;;;;;;52.42;27.45;;;;;;;5.18;95.32;101614.97;4994609;28;20034;-78
2020/12/17 06:50:23;;;;;;;54.88;28.23;;;;;;;5.15;95.81;101604.78;4978058;28;20030;-78
2020/12/17 06:53:09;;;;;;;49.88;26.73;;;;;;;5.17;95.59;101602.91;4993191;28;20116;-78
2020/12/17 06:55:46;;;;;;;52.75;25.80;;;;;;;5.17;95.33;101600.31;4994300;28;20061;-77
2020/12/17 06:58:23;;;;;;;48.08;26.02;;;;;;;5.19;95.03;101598.44;4981391;28;20531;-77
2020/12/17 07:00:52;;;;;;;45.58;24.85;;;;;;;5.21;95.08;101599.19;5002131;28;20396;-77
2020/12/17 07:03:40;;;;;;;49.33;26.40;;;;;;;5.23;95.13;101589.53;4975775;28;20072;-77
2020/12/17 07:06:13;;;;;;;52.83;28.10;;;;;;;5.19;95.40;101585.44;4993381;28;20034;-77
2020/12/17 07:08:39;;;;;;;47.78;26.13;;;;;;;5.21;95.46;101587.03;4993848;28;20030;-77
2020/12/17 07:11:07;;;;;;;49.80;27.58;;;;;;;5.26;95.11;101589.38;4975596;28;20443;-77
2020/12/17 07:13:42;;;;;;;49.10;25.77;;;;;;;5.22;95.10;101586.09;5010088;28;20034;-77
2020/12/17 07:16:21;;;;;;;49.20;26.08;;;;;;;5.31;95.31;101597.72;5011809;28;20069;-78
2020/12/17 07:18:47;;;;;;;50.35;25.55;;;;;;;5.23;95.46;101597.34;5005329;28;20393;-79
2020/12/17 07:21:12;;;;;;;43.47;24.60;;;;;;;5.27;95.26;101593.63;4996668;28;20129;-76
2020/12/17 07:23:39;;;;;;;48.80;26.85;;;;;;;5.26;95.02;101589.38;4979998;28;20076;-77
2020/12/17 07:26:11;;;;;;;45.63;25.23;;;;;;;5.35;94.47;101586.22;4974335;28;20098;-78
2020/12/17 07:28:37;;;;;;;46.70;24.98;;;;;;;5.31;94.41;101576.91;5007219;28;20086;-77
2020/12/17 07:31:03;;;;;;;41.88;23.50;;;;;;;5.40;94.12;101593.72;4978384;28;20192;-76
2020/12/17 07:33:37;;;;;;;44.97;24.60;;;;;;;5.43;94.67;101614.38;4996666;28;20096;-77
2020/12/17 07:36:07;;;;;;;46.63;24.58;;;;;;;5.34;94.06;101639.16;5013165;28;20034;-78
2020/12/17 07:38:33;;;;;;;45.10;24.52;;;;;;;5.34;94.40;101631.34;5012089;28;20037;-75
2020/12/17 07:40:58;;;;;;;48.10;24.35;;;;;;;5.36;94.78;101631.28;4960712;28;20034;-77
2020/12/17 07:43:39;;;;;;;42.50;23.70;;;;;;;5.41;94.32;101622.28;4975134;28;20519;-77
2020/12/17 07:46:04;;;;;;;44.83;24.50;;;;;;;5.40;94.58;101635.38;4987774;28;20400;-78
2020/12/17 07:48:40;;;;;;;44.53;23.63;;;;;;;5.38;95.37;101632.03;4981558;28;20109;-77
2020/12/17 07:51:12;;;;;;;45.33;24.90;;;;;;;5.42;95.25;101636.94;4980779;28;20133;-78
2020/12/17 07:53:38;;;;;;;42.53;22.83;;;;;;;5.42;94.97;101631.72;4980959;28;20038;-78
2020/12/17 07:56:04;;;;;;;42.22;23.55;;;;;;;5.46;94.93;101624.56;4996362;28;20039;-79
2020/12/17 07:58:30;;;;;;;44.13;23.48;;;;;;;5.45;95.06;101639.38;4994016;28;20404;-78
2020/12/17 08:00:56;;;;;;;39.65;22.20;;;;;;;5.50;95.07;101631.31;4992768;28;20035;-79
2020/12/17 08:03:23;;;;;;;36.58;21.75;;;;;;;5.57;94.74;101636.97;4997480;28;20038;-78
2020/12/17 08:05:50;;;;;;;43.78;23.02;;;;;;;5.60;95.34;101634.19;4997684;28;20038;-78
2020/12/17 08:08:16;;;;;;;41.28;21.70;;;;;;;5.63;94.00;101615.75;4961276;28;20053;-79
2020/12/17 08:10:43;;;;;;;40.33;22.27;;;;;;;5.68;94.62;101620.69;4967482;28;20476;-78
2020/12/17 08:13:09;;;;;;;36.35;21.77;;;;;;;5.76;94.08;101621.06;4996699;28;20038;-78
2020/12/17 08:15:35;;;;;;;37.78;20.98;;;;;;;5.76;94.19;101621.06;4991875;28;20049;-77
2020/12/17 08:18:02;;;;;;;33.38;19.23;;;;;;;5.79;94.19;101642.53;4997803;28;20040;-78
2020/12/17 08:20:29;;;;;;;36.28;21.55;;;;;;;5.84;94.04;101642.28;4955967;28;20026;-77
2020/12/17 08:22:55;;;;;;;34.67;20.48;;;;;;;5.87;94.43;101638.63;4972008;28;20404;-77
2020/12/17 08:25:21;;;;;;;35.10;20.23;;;;;;;5.80;94.51;101639.03;4994599;28;20030;-78
2020/12/17 08:27:47;;;;;;;29.63;18.27;;;;;;;5.85;94.07;101646.53;5009147;28;20451;-78
2020/12/17 08:30:13;;;;;;;31.85;19.58;;;;;;;5.97;94.20;101644.97;4971823;28;20150;-77
2020/12/17 08:33:09;;;;;;;30.30;17.35;;;;;;;6.06;94.02;101646.19;4976550;28;20035;-77
2020/12/17 08:35:34;;;;;;;28.48;17.20;;;;;;;6.08;93.54;101639.09;4975430;28;20536;-77
2020/12/17 08:38:00;;;;;;;27.48;17.58;;;;;;;6.25;93.00;101641.50;4981074;28;20046;-79
2020/12/17 08:40:28;;;;;;;30.73;17.52;;;;;;;6.35;92.35;101634.78;5019092;28;20038;-78
2020/12/17 08:42:58;;;;;;;28.08;16.45;;;;;;;6.52;91.89;101635.50;4998305;28;20037;-78
2020/12/17 08:45:26;;;;;;;30.60;17.25;;;;;;;6.42;91.87;101627.41;4995800;28;20134;-77
2020/12/17 08:47:56;;;;;;;24.63;15.75;;;;;;;6.50;91.95;101642.53;4991894;28;20039;-77
2020/12/17 08:50:22;;;;;;;27.58;17.05;;;;;;;6.55;91.65;101643.09;4988417;28;20493;-77
2020/12/17 08:52:49;;;;;;;24.83;15.02;;;;;;;6.57;91.93;101647.28;4995636;28;20042;-77
2020/12/17 08:55:14;;;;;;;28.33;17.13;;;;;;;6.63;91.57;101638.25;4962744;28;20041;-77
2020/12/17 08:57:40;;;;;;;26.33;15.70;;;;;;;6.67;91.03;101639.72;4994600;28;20033;-77
2020/12/17 09:00:19;;;;;;;26.58;15.80;;;;;;;6.68;91.06;101645.75;5004194;28;20044;-78
2020/12/17 09:02:45;;;;;;;24.95;15.70;;;;;;;6.70;90.91;101644.72;4994648;28;20049;-78
2020/12/17 09:05:12;;;;;;;25.38;15.82;;;;;;;6.73;90.94;101639.31;5012042;28;20030;-77
2020/12/17 09:07:40;;;;;;;28.25;16.95;;;;;;;6.69;90.59;101629.19;5004378;28;20038;-77
2020/12/17 09:10:11;;;;;;;26.42;14.70;;;;;;;6.77;90.60;101638.16;4993491;28;20037;-75
2020/12/17 09:12:36;;;;;;;22.77;14.95;;;;;;;6.75;91.02;101634.81;4994103;28;20582;-78
2020/12/17 09:15:11;;;;;;;26.27;16.52;;;;;;;6.79;90.69;101632.84;4982502;28;20034;-79
2020/12/17 09:17:38;;;;;;;27.08;16.27;;;;;;;6.85;90.45;101639.44;5015830;28;20084;-78
2020/12/17 09:20:19;;;;;;;29.52;16.45;;;;;;;6.80;91.10;101637.97;4998858;28;20538;-76
2020/12/17 09:22:45;;;;;;;24.00;15.13;;;;;;;6.83;90.75;101648.19;4998742;28;20127;-76
2020/12/17 09:25:26;;;;;;;27.20;16.38;;;;;;;6.79;91.13;101641.50;5008261;28;20494;-79
2020/12/17 09:27:51;;;;;;;25.02;14.85;;;;;;;6.86;91.10;101647.16;4978467;28;20400;-79
2020/12/17 09:30:19;;;;;;;29.95;15.93;;;;;;;6.86;91.20;101638.53;4980398;28;20030;-76
2020/12/17 09:32:59;;;;;;;22.45;15.05;;;;;;;6.86;91.78;101641.97;5007693;28;20053;-79
2020/12/17 09:35:30;;;;;;;27.63;17.30;;;;;;;6.85;92.36;101645.47;4978488;28;20045;-76
2020/12/17 09:38:01;;;;;;;27.15;16.58;;;;;;;6.91;91.89;101646.84;4998632;28;20033;-79
2020/12/17 09:40:27;;;;;;;28.00;17.60;;;;;;;6.89;92.39;101651.34;4998458;28;20049;-78
2020/12/17 09:43:07;;;;;;;26.80;16.40;;;;;;;6.90;92.51;101640.81;5013591;28;20651;-76
2020/12/17 09:45:44;;;;;;;26.83;16.73;;;;;;;6.88;92.95;101644.47;4997889;28;20045;-77
2020/12/17 09:48:13;;;;;;;27.70;17.60;;;;;;;6.92;92.70;101638.94;5014933;28;20038;-77
2020/12/17 09:51:06;;;;;;;28.48;16.52;;;;;;;6.89;93.44;101638.31;4998742;28;20044;-77
2020/12/17 09:53:36;;;;;;;;;;;;;;;6.95;92.66;101640.50;5011013;28;20089;-75
2020/12/17 09:56:02;;;;;;;29.00;17.27;;;;;;;6.87;93.37;101645.38;4979575;28;19965;-78
2020/12/17 09:58:29;;;;;;;26.35;17.45;;;;;;;6.83;93.57;101647.34;4988533;28;20120;-77
2020/12/17 10:00:54;;;;;;;27.85;17.02;;;;;;;6.80;93.77;101645.78;4977886;28;20440;-78
2020/12/17 10:03:20;;;;;;;30.92;18.48;;;;;;;6.82;93.90;101648.31;4991551;28;20038;-77
2020/12/17 10:05:45;;;;;;;30.05;18.75;;;;;;;6.85;94.50;101653.31;4974533;28;20312;-78
2020/12/17 10:08:11;;;;;;;32.75;18.38;;;;;;;6.90;94.44;101663.47;4978199;28;20490;-76
2020/12/17 10:10:37;;;;;;;30.80;18.40;;;;;;;6.92;94.50;101662.41;4974344;28;20038;-77
2020/12/17 10:13:04;;;;;;;29.23;19.33;;;;;;;6.93;93.95;101664.09;4980203;28;20128;-78
2020/12/17 10:15:30;;;;;;;29.52;18.55;;;;;;;6.89;95.00;101680.84;4999739;28;20058;-77
2020/12/17 10:17:56;;;;;;;32.10;19.15;;;;;;;6.92;95.01;101672.84;4994446;28;20042;-78
2020/12/17 10:20:23;;;;;;;32.67;19.00;;;;;;;6.96;94.55;101676.91;5013914;28;20029;-77
2020/12/17 10:22:48;;;;;;;28.25;18.48;;;;;;;6.93;95.04;101666.72;4997100;28;20488;-76
2020/12/17 10:25:16;;;;;;;34.90;18.00;;;;;;;6.98;95.15;101675.03;4997444;28;20037;-77
2020/12/17 10:27:42;;;;;;;31.70;19.27;;;;;;;6.92;95.25;101664.19;4988994;28;20034;-78
2020/12/17 10:30:08;;;;;;;33.75;19.80;;;;;;;6.93;95.43;101665.84;4981927;28;20881;-76
2020/12/17 10:32:34;;;;;;;31.10;19.23;;;;;;;7.02;95.42;101678.28;4983069;28;20049;-77
2020/12/17 10:35:00;;;;;;;31.90;20.10;;;;;;;7.04;95.36;101665.16;4982080;28;20034;-78
2020/12/17 10:37:26;;;;;;;32.60;19.45;;;;;;;6.99;95.41;101668.06;4975015;28;20082;-77
2020/12/17 10:39:53;;;;;;;32.80;19.65;;;;;;;7.14;95.31;101677.50;4977815;28;20096;-78
2020/12/17 10:42:19;;;;;;;30.48;19.60;;;;;;;7.16;95.15;101677.41;4991777;28;20030;-78
2020/12/17 10:44:44;;;;;;;38.15;20.10;;;;;;;7.15;95.32;101678.31;4990352;28;20081;-78
2020/12/17 10:47:10;;;;;;;34.60;20.65;;;;;;;7.11;95.78;101674.25;4989597;28;20076;-78
2020/12/17 10:49:35;;;;;;;38.30;21.38;;;;;;;7.11;95.39;101677.69;4973810;28;20031;-78
2020/12/17 10:52:01;;;;;;;29.35;19.70;;;;;;;7.18;95.30;101681.56;4957593;28;20039;-75
2020/12/17 10:54:28;;;;;;;35.97;20.50;;;;;;;7.16;95.53;101662.56;4996758;28;20061;-79
2020/12/17 10:56:54;;;;;;;31.92;19.65;;;;;;;7.24;95.53;101675.09;4974554;28;20046;-77
2020/12/17 10:59:19;;;;;;;31.95;20.05;;;;;;;7.27;95.30;101663.63;5001656;28;20489;-77
2020/12/17 11:01:45;;;;;;;34.78;20.95;;;;;;;7.32;95.24;101675.44;4992742;28;20029;-77
2020/12/17 11:04:10;;;;;;;31.95;19.50;;;;;;;7.37;94.93;101680.34;4976403;28;20038;-78
2020/12/17 11:06:36;;;;;;;34.72;21.20;;;;;;;7.49;94.75;101670.84;4992673;28;20096;-77
2020/12/17 11:09:02;;;;;;;36.38;20.45;;;;;;;7.54;94.83;101666.16;4992300;28;20042;-77
2020/12/17 11:11:27;;;;;;;34.78;21.70;;;;;;;7.53;94.86;101672.31;4983149;28;20105;-79
2020/12/17 11:13:53;;;;;;;30.67;19.52;;;;;;;7.64;94.41;101672.41;4976809;28;20038;-77
2020/12/17 11:16:19;;;;;;;33.97;19.33;;;;;;;7.64;94.27;101668.97;4993508;28;20504;-79
2020/12/17 11:18:45;;;;;;;37.20;19.55;;;;;;;7.64;94.61;101676.81;5009008;28;20037;-78